Hanjin Phoenix — A8CN9 — position and weather

sailwx.info

Track history (hours):
 
Tides and Currents Weather Stations Pressure Air Temp Water Temp Dewpoint Dewpoint Depression Visibility Wind Speed Wind Dir Waves Ship Positions

Hanjin Phoenix

Last reported at 2014-Aug-01 08:33 UTC. Time now 2014-Aug-01 09:54 UTC.
Position N 36°20' W 001°54'.

Length 282.1 m; beam 32.2 m; draft 13 m.

Type: Ship (hazmat cat A). MMSI: 636090671.

Date/timePositionNaut miles runAvg speedWind from/ knotsBaromVisibWave heightAir tempDewpointWater temp
2014-Aug-01 08:33N 36°20' W 001°54'2119.4
2014-Aug-01 07:27N 36°26' W 001°28'1719.1
2014-Aug-01 06:33N 36°31' W 001°08'1919.4
2014-Aug-01 05:33N 36°36' W 000°44'3919.2
2014-Aug-01 03:31N 36°47' E 000°03'1919.6
2014-Aug-01 02:33N 36°52' E 000°25'2020.3
2014-Aug-01 01:33N 36°58' E 000°50'2020.0
2014-Aug-01 00:33N 37°04' E 001°14'1918.7
2014-Jul-31 23:33N 37°08' E 001°36'2019.9
2014-Jul-31 22:33N 37°14' E 002°00'2020.2
2014-Jul-31 21:33N 37°19' E 002°25'2020.3
2014-Jul-31 20:33N 37°25' E 002°49'2120.6
2014-Jul-31 19:34N 37°31' E 003°14'2120.5
2014-Jul-31 18:33N 37°36' E 003°39'2120.5
2014-Jul-31 17:32N 37°42' E 004°05'2720.8
2014-Jul-31 16:13N 37°50' E 004°38'20420.5
2014-Jul-31 06:17N 38°46' E 008°48'1418.6
2014-Jul-31 05:33N 38°54' E 009°02'1414.3
2014-Jul-31 04:33N 39°08' E 009°05'5 3.7
2014-Jul-31 03:11N 39°13' E 009°04'0 0.0
2014-Jul-31 02:29N 39°13' E 009°04'0 0.0
2014-Jul-31 01:29N 39°13' E 009°04'0 0.0
2014-Jul-30 23:23N 39°13' E 009°04'0 0.0
2014-Jul-30 22:23N 39°13' E 009°04'0 0.0
2014-Jul-30 21:05N 39°13' E 009°04'0 0.0
2014-Jul-30 20:23N 39°13' E 009°04'0 0.0
2014-Jul-30 19:29N 39°13' E 009°04'0 0.0
2014-Jul-30 18:23N 39°13' E 009°04'0 0.0
2014-Jul-30 17:29N 39°13' E 009°04'0 0.0
2014-Jul-30 16:30N 39°13' E 009°04'0 0.0
2014-Jul-30 15:30N 39°13' E 009°04'0 0.0
2014-Jul-30 14:18N 39°13' E 009°04'0 0.0
2014-Jul-30 13:30N 39°13' E 009°04'0 0.0
2014-Jul-30 12:24N 39°13' E 009°04'0 0.0
2014-Jul-30 11:30N 39°13' E 009°04'0 0.0
2014-Jul-30 10:30N 39°13' E 009°04'4 3.8
2014-Jul-30 09:33N 39°10' E 009°06'1313.3
2014-Jul-30 08:33N 39°01' E 009°19'17513.5
2014-Jul-29 19:32N 37°20' E 012°21'1313.5
2014-Jul-29 18:33N 37°10' E 012°32'1413.5
2014-Jul-29 17:33N 37°01' E 012°44'1313.4
2014-Jul-29 16:33N 36°54' E 012°59'1413.8
2014-Jul-29 15:33N 36°47' E 013°14'1413.8
2014-Jul-29 14:33N 36°40' E 013°28'1413.7
2014-Jul-29 13:33N 36°32' E 013°43'1313.4
2014-Jul-29 12:33N 36°26' E 013°57'1413.6
2014-Jul-29 11:33N 36°19' E 014°12'1413.5
2014-Jul-29 10:33N 36°12' E 014°26'1413.6
2014-Jul-29 09:33N 36°05' E 014°41'1413.7
2014-Jul-29 08:33N 35°60' E 014°56'1313.4
2014-Jul-29 07:33N 35°55' E 015°12'1413.6
2014-Jul-29 06:33N 35°51' E 015°28'27213.6
2014-Jul-28 10:33N 34°34' E 020°47'1413.7
2014-Jul-28 09:32N 34°30' E 021°03'1913.5
2014-Jul-28 08:09N 34°24' E 021°25'813.6
2014-Jul-28 07:33N 34°22' E 021°34'  
Track history (hours):
 
Tides and Currents Weather Stations Pressure Air Temp Water Temp Dewpoint Dewpoint Depression Visibility Wind Speed Wind Dir Waves Ship Positions

Hanjin Phoenix

Last reported at 2014-Aug-01 08:33 UTC. Time now 2014-Aug-01 09:54 UTC.
Position N 36°20' W 001°54'.

Length 282.1 m; beam 32.2 m; draft 13 m.

Type: Ship (hazmat cat A). MMSI: 636090671.

Date/timePositionNaut miles runAvg speedWind from/ knotsBaromVisibWave heightAir tempDewpointWater temp
2014-Aug-01 08:33N 36°20' W 001°54'2119.4
2014-Aug-01 07:27N 36°26' W 001°28'1719.1
2014-Aug-01 06:33N 36°31' W 001°08'1919.4
2014-Aug-01 05:33N 36°36' W 000°44'3919.2
2014-Aug-01 03:31N 36°47' E 000°03'1919.6
2014-Aug-01 02:33N 36°52' E 000°25'2020.3
2014-Aug-01 01:33N 36°58' E 000°50'2020.0
2014-Aug-01 00:33N 37°04' E 001°14'1918.7
2014-Jul-31 23:33N 37°08' E 001°36'2019.9
2014-Jul-31 22:33N 37°14' E 002°00'2020.2
2014-Jul-31 21:33N 37°19' E 002°25'2020.3
2014-Jul-31 20:33N 37°25' E 002°49'2120.6
2014-Jul-31 19:34N 37°31' E 003°14'2120.5
2014-Jul-31 18:33N 37°36' E 003°39'2120.5
2014-Jul-31 17:32N 37°42' E 004°05'2720.8
2014-Jul-31 16:13N 37°50' E 004°38'20420.5
2014-Jul-31 06:17N 38°46' E 008°48'1418.6
2014-Jul-31 05:33N 38°54' E 009°02'1414.3
2014-Jul-31 04:33N 39°08' E 009°05'5 3.7
2014-Jul-31 03:11N 39°13' E 009°04'0 0.0
2014-Jul-31 02:29N 39°13' E 009°04'0 0.0
2014-Jul-31 01:29N 39°13' E 009°04'0 0.0
2014-Jul-30 23:23N 39°13' E 009°04'0 0.0
2014-Jul-30 22:23N 39°13' E 009°04'0 0.0
2014-Jul-30 21:05N 39°13' E 009°04'0 0.0
2014-Jul-30 20:23N 39°13' E 009°04'0 0.0
2014-Jul-30 19:29N 39°13' E 009°04'0 0.0
2014-Jul-30 18:23N 39°13' E 009°04'0 0.0
2014-Jul-30 17:29N 39°13' E 009°04'0 0.0
2014-Jul-30 16:30N 39°13' E 009°04'0 0.0
2014-Jul-30 15:30N 39°13' E 009°04'0 0.0
2014-Jul-30 14:18N 39°13' E 009°04'0 0.0
2014-Jul-30 13:30N 39°13' E 009°04'0 0.0
2014-Jul-30 12:24N 39°13' E 009°04'0 0.0
2014-Jul-30 11:30N 39°13' E 009°04'0 0.0
2014-Jul-30 10:30N 39°13' E 009°04'4 3.8
2014-Jul-30 09:33N 39°10' E 009°06'1313.3
2014-Jul-30 08:33N 39°01' E 009°19'17513.5
2014-Jul-29 19:32N 37°20' E 012°21'1313.5
2014-Jul-29 18:33N 37°10' E 012°32'1413.5
2014-Jul-29 17:33N 37°01' E 012°44'1313.4
2014-Jul-29 16:33N 36°54' E 012°59'1413.8
2014-Jul-29 15:33N 36°47' E 013°14'1413.8
2014-Jul-29 14:33N 36°40' E 013°28'1413.7
2014-Jul-29 13:33N 36°32' E 013°43'1313.4
2014-Jul-29 12:33N 36°26' E 013°57'1413.6
2014-Jul-29 11:33N 36°19' E 014°12'1413.5
2014-Jul-29 10:33N 36°12' E 014°26'1413.6
2014-Jul-29 09:33N 36°05' E 014°41'1413.7
2014-Jul-29 08:33N 35°60' E 014°56'1313.4
2014-Jul-29 07:33N 35°55' E 015°12'1413.6
2014-Jul-29 06:33N 35°51' E 015°28'27213.6
2014-Jul-28 10:33N 34°34' E 020°47'1413.7
2014-Jul-28 09:32N 34°30' E 021°03'1913.5
2014-Jul-28 08:09N 34°24' E 021°25'813.6
2014-Jul-28 07:33N 34°22' E 021°34'  

Dump ship's entire track history